2PN5 weather

Baker-Sell Airport
Woodbury, Pennsylvania, United States

Public forecast

Using degrees Fahrenheit for public forecast. Weather courtesy of forecast.io.

Closest aviation weather report (METAR) to Baker-Sell Airport

Closest report is Altoona Blair County Airport, 3.4 nm (6.4 km) NNE. Retrieved 2019/10/19 11:43 UTC (7 minutes ago):

KAOO 191143Z AUTO 00000KT 3SM BR CLR 02/01 A3009 RMK AO2 T00170006

Closest aviation forecast (TAF) to Baker-Sell Airport

Closest forecast is Altoona Blair County Airport, 3.4 nm (6.4 km) NNE. Retrieved 2019/10/19 06:00 UTC (6 hours ago):

TAF KAOO 190559Z 1906/2006 00000KT P6SM FEW250 FM190800 00000KT P6SM VCFG FEW250 TEMPO 1910/1912 2SM BR SCT003 FM191330 16004KT P6SM SCT250